sensor_id;sensor_type;location;lat;lon;timestamp;P1;durP1;ratioP1;P2;durP2;ratioP2
6185;SDS011;3126;52.738;8.316;2024-02-23T00:03:15;0.47;;;0.47;;
6185;SDS011;3126;52.738;8.316;2024-02-23T00:08:16;0.90;;;0.90;;
6185;SDS011;3126;52.738;8.316;2024-02-23T00:13:19;0.75;;;0.75;;
6185;SDS011;3126;52.738;8.316;2024-02-23T00:18:20;0.60;;;0.60;;
6185;SDS011;3126;52.738;8.316;2024-02-23T00:23:21;0.88;;;0.88;;
6185;SDS011;3126;52.738;8.316;2024-02-23T00:28:22;0.77;;;0.70;;
6185;SDS011;3126;52.738;8.316;2024-02-23T00:33:23;1.42;;;0.75;;
6185;SDS011;3126;52.738;8.316;2024-02-23T00:38:24;1.98;;;0.93;;
6185;SDS011;3126;52.738;8.316;2024-02-23T00:43:25;0.70;;;0.70;;
6185;SDS011;3126;52.738;8.316;2024-02-23T00:48:26;1.10;;;1.10;;
6185;SDS011;3126;52.738;8.316;2024-02-23T00:53:27;1.00;;;1.00;;
6185;SDS011;3126;52.738;8.316;2024-02-23T00:58:28;0.77;;;0.77;;
6185;SDS011;3126;52.738;8.316;2024-02-23T01:03:29;0.50;;;0.50;;
6185;SDS011;3126;52.738;8.316;2024-02-23T01:08:30;0.63;;;0.47;;
6185;SDS011;3126;52.738;8.316;2024-02-23T01:13:31;0.70;;;0.30;;
6185;SDS011;3126;52.738;8.316;2024-02-23T01:18:32;0.28;;;0.28;;
6185;SDS011;3126;52.738;8.316;2024-02-23T01:23:33;0.20;;;0.20;;
6185;SDS011;3126;52.738;8.316;2024-02-23T01:28:34;0.50;;;0.50;;
6185;SDS011;3126;52.738;8.316;2024-02-23T01:33:35;0.68;;;0.30;;
6185;SDS011;3126;52.738;8.316;2024-02-23T01:38:36;0.32;;;0.30;;
6185;SDS011;3126;52.738;8.316;2024-02-23T01:43:37;0.25;;;0.25;;
6185;SDS011;3126;52.738;8.316;2024-02-23T01:48:38;0.20;;;0.20;;
6185;SDS011;3126;52.738;8.316;2024-02-23T01:53:39;0.40;;;0.40;;
6185;SDS011;3126;52.738;8.316;2024-02-23T01:58:40;0.30;;;0.30;;
6185;SDS011;3126;52.738;8.316;2024-02-23T02:03:41;0.28;;;0.28;;
6185;SDS011;3126;52.738;8.316;2024-02-23T02:08:43;0.47;;;0.47;;
6185;SDS011;3126;52.738;8.316;2024-02-23T02:13:44;0.55;;;0.55;;
6185;SDS011;3126;52.738;8.316;2024-02-23T02:18:45;0.57;;;0.52;;
6185;SDS011;3126;52.738;8.316;2024-02-23T02:23:47;0.77;;;0.70;;
6185;SDS011;3126;52.738;8.316;2024-02-23T02:28:48;0.57;;;0.57;;
6185;SDS011;3126;52.738;8.316;2024-02-23T02:33:49;0.55;;;0.40;;
6185;SDS011;3126;52.738;8.316;2024-02-23T02:38:50;1.48;;;0.90;;
6185;SDS011;3126;52.738;8.316;2024-02-23T02:43:51;0.60;;;0.50;;
6185;SDS011;3126;52.738;8.316;2024-02-23T02:48:51;1.67;;;1.20;;
6185;SDS011;3126;52.738;8.316;2024-02-23T02:53:52;3.72;;;1.85;;
6185;SDS011;3126;52.738;8.316;2024-02-23T02:58:54;2.78;;;1.85;;
6185;SDS011;3126;52.738;8.316;2024-02-23T03:03:55;5.13;;;1.90;;
6185;SDS011;3126;52.738;8.316;2024-02-23T03:08:56;2.95;;;2.30;;
6185;SDS011;3126;52.738;8.316;2024-02-23T03:13:57;3.60;;;2.17;;
6185;SDS011;3126;52.738;8.316;2024-02-23T03:18:58;3.63;;;1.55;;
6185;SDS011;3126;52.738;8.316;2024-02-23T03:23:59;4.35;;;2.28;;
6185;SDS011;3126;52.738;8.316;2024-02-23T03:29:00;3.92;;;2.10;;
6185;SDS011;3126;52.738;8.316;2024-02-23T03:34:02;2.85;;;1.67;;
6185;SDS011;3126;52.738;8.316;2024-02-23T03:39:03;2.03;;;1.05;;
6185;SDS011;3126;52.738;8.316;2024-02-23T03:44:04;2.50;;;1.20;;
6185;SDS011;3126;52.738;8.316;2024-02-23T03:49:05;1.20;;;0.98;;
6185;SDS011;3126;52.738;8.316;2024-02-23T03:54:06;1.67;;;1.20;;
6185;SDS011;3126;52.738;8.316;2024-02-23T03:59:07;1.23;;;0.90;;
6185;SDS011;3126;52.738;8.316;2024-02-23T04:04:11;0.70;;;0.65;;
6185;SDS011;3126;52.738;8.316;2024-02-23T04:09:12;1.17;;;0.98;;
6185;SDS011;3126;52.738;8.316;2024-02-23T04:14:13;1.85;;;1.00;;
6185;SDS011;3126;52.738;8.316;2024-02-23T04:19:14;2.30;;;0.80;;
6185;SDS011;3126;52.738;8.316;2024-02-23T04:24:15;0.88;;;0.88;;
6185;SDS011;3126;52.738;8.316;2024-02-23T04:29:16;1.42;;;0.90;;
6185;SDS011;3126;52.738;8.316;2024-02-23T04:34:17;1.70;;;1.50;;
6185;SDS011;3126;52.738;8.316;2024-02-23T04:39:18;3.00;;;1.42;;
6185;SDS011;3126;52.738;8.316;2024-02-23T04:44:19;4.13;;;1.70;;
6185;SDS011;3126;52.738;8.316;2024-02-23T04:49:20;1.83;;;1.73;;
6185;SDS011;3126;52.738;8.316;2024-02-23T04:54:21;5.78;;;2.00;;
6185;SDS011;3126;52.738;8.316;2024-02-23T04:59:22;4.78;;;2.47;;
6185;SDS011;3126;52.738;8.316;2024-02-23T05:04:23;2.72;;;2.13;;
6185;SDS011;3126;52.738;8.316;2024-02-23T05:09:26;5.55;;;2.70;;
6185;SDS011;3126;52.738;8.316;2024-02-23T05:14:27;4.28;;;2.58;;
6185;SDS011;3126;52.738;8.316;2024-02-23T05:19:28;5.60;;;2.88;;
6185;SDS011;3126;52.738;8.316;2024-02-23T05:24:29;3.65;;;1.85;;
6185;SDS011;3126;52.738;8.316;2024-02-23T05:29:30;3.92;;;1.85;;
6185;SDS011;3126;52.738;8.316;2024-02-23T05:34:31;2.17;;;1.85;;
6185;SDS011;3126;52.738;8.316;2024-02-23T05:39:32;5.40;;;1.50;;
6185;SDS011;3126;52.738;8.316;2024-02-23T05:44:33;4.32;;;2.05;;
6185;SDS011;3126;52.738;8.316;2024-02-23T05:49:34;1.10;;;1.00;;
6185;SDS011;3126;52.738;8.316;2024-02-23T05:54:35;5.45;;;2.00;;
6185;SDS011;3126;52.738;8.316;2024-02-23T05:59:36;2.22;;;1.38;;
6185;SDS011;3126;52.738;8.316;2024-02-23T06:04:37;4.65;;;2.00;;
6185;SDS011;3126;52.738;8.316;2024-02-23T06:09:38;6.05;;;1.98;;
6185;SDS011;3126;52.738;8.316;2024-02-23T06:14:39;7.72;;;2.00;;
6185;SDS011;3126;52.738;8.316;2024-02-23T06:19:40;5.50;;;1.67;;
6185;SDS011;3126;52.738;8.316;2024-02-23T06:24:41;3.47;;;1.40;;
6185;SDS011;3126;52.738;8.316;2024-02-23T06:29:42;3.58;;;1.80;;
6185;SDS011;3126;52.738;8.316;2024-02-23T06:34:43;5.57;;;1.67;;
6185;SDS011;3126;52.738;8.316;2024-02-23T06:39:44;8.93;;;2.10;;
6185;SDS011;3126;52.738;8.316;2024-02-23T06:44:50;10.20;;;2.03;;
6185;SDS011;3126;52.738;8.316;2024-02-23T06:49:50;4.15;;;1.90;;
6185;SDS011;3126;52.738;8.316;2024-02-23T06:54:52;5.53;;;2.10;;
6185;SDS011;3126;52.738;8.316;2024-02-23T06:59:53;2.95;;;1.58;;
6185;SDS011;3126;52.738;8.316;2024-02-23T07:04:54;8.05;;;2.17;;
6185;SDS011;3126;52.738;8.316;2024-02-23T07:09:56;4.88;;;1.75;;
6185;SDS011;3126;52.738;8.316;2024-02-23T07:14:57;2.92;;;1.25;;
6185;SDS011;3126;52.738;8.316;2024-02-23T07:19:58;4.43;;;1.48;;
6185;SDS011;3126;52.738;8.316;2024-02-23T07:25:05;7.97;;;1.92;;
6185;SDS011;3126;52.738;8.316;2024-02-23T07:30:06;5.22;;;1.55;;
6185;SDS011;3126;52.738;8.316;2024-02-23T07:35:08;1.65;;;0.98;;
6185;SDS011;3126;52.738;8.316;2024-02-23T07:40:09;6.43;;;1.65;;
6185;SDS011;3126;52.738;8.316;2024-02-23T07:45:10;4.22;;;1.75;;
6185;SDS011;3126;52.738;8.316;2024-02-23T07:50:11;2.53;;;1.80;;
6185;SDS011;3126;52.738;8.316;2024-02-23T07:55:12;4.65;;;1.40;;
6185;SDS011;3126;52.738;8.316;2024-02-23T08:00:14;3.00;;;1.20;;
6185;SDS011;3126;52.738;8.316;2024-02-23T08:05:15;5.30;;;1.50;;
6185;SDS011;3126;52.738;8.316;2024-02-23T08:10:16;3.70;;;1.35;;
6185;SDS011;3126;52.738;8.316;2024-02-23T08:15:17;7.13;;;1.27;;
6185;SDS011;3126;52.738;8.316;2024-02-23T08:20:18;4.60;;;1.48;;
6185;SDS011;3126;52.738;8.316;2024-02-23T08:25:19;2.75;;;1.45;;
6185;SDS011;3126;52.738;8.316;2024-02-23T08:30:20;9.52;;;2.55;;
6185;SDS011;3126;52.738;8.316;2024-02-23T08:35:21;4.53;;;1.40;;
6185;SDS011;3126;52.738;8.316;2024-02-23T08:40:22;5.00;;;1.48;;
6185;SDS011;3126;52.738;8.316;2024-02-23T08:45:23;3.88;;;1.13;;
6185;SDS011;3126;52.738;8.316;2024-02-23T08:50:24;6.35;;;1.25;;
6185;SDS011;3126;52.738;8.316;2024-02-23T08:55:25;3.08;;;1.50;;
6185;SDS011;3126;52.738;8.316;2024-02-23T09:00:26;3.50;;;1.65;;
6185;SDS011;3126;52.738;8.316;2024-02-23T09:05:27;4.15;;;0.98;;
6185;SDS011;3126;52.738;8.316;2024-02-23T09:10:28;3.45;;;1.58;;
6185;SDS011;3126;52.738;8.316;2024-02-23T09:15:29;1.40;;;1.15;;
6185;SDS011;3126;52.738;8.316;2024-02-23T09:20:30;5.50;;;1.88;;
6185;SDS011;3126;52.738;8.316;2024-02-23T09:25:31;2.10;;;0.80;;
6185;SDS011;3126;52.738;8.316;2024-02-23T09:30:32;2.47;;;1.30;;
6185;SDS011;3126;52.738;8.316;2024-02-23T09:35:33;4.60;;;1.77;;
6185;SDS011;3126;52.738;8.316;2024-02-23T09:40:34;4.82;;;1.90;;
6185;SDS011;3126;52.738;8.316;2024-02-23T09:45:35;3.65;;;2.00;;
6185;SDS011;3126;52.738;8.316;2024-02-23T09:50:37;3.20;;;1.38;;
6185;SDS011;3126;52.738;8.316;2024-02-23T09:55:42;2.35;;;1.70;;
6185;SDS011;3126;52.738;8.316;2024-02-23T10:00:43;5.50;;;1.17;;
6185;SDS011;3126;52.738;8.316;2024-02-23T10:05:44;4.78;;;1.27;;
6185;SDS011;3126;52.738;8.316;2024-02-23T10:10:46;2.25;;;1.05;;
6185;SDS011;3126;52.738;8.316;2024-02-23T10:15:50;3.55;;;1.25;;
6185;SDS011;3126;52.738;8.316;2024-02-23T10:20:51;3.97;;;2.53;;
6185;SDS011;3126;52.738;8.316;2024-02-23T10:25:53;2.53;;;1.20;;
6185;SDS011;3126;52.738;8.316;2024-02-23T10:30:54;4.35;;;1.08;;
6185;SDS011;3126;52.738;8.316;2024-02-23T10:35:56;3.83;;;1.20;;
6185;SDS011;3126;52.738;8.316;2024-02-23T10:41:00;4.00;;;1.88;;
6185;SDS011;3126;52.738;8.316;2024-02-23T10:46:02;1.27;;;1.10;;
6185;SDS011;3126;52.738;8.316;2024-02-23T10:51:07;3.53;;;1.17;;
6185;SDS011;3126;52.738;8.316;2024-02-23T10:56:09;0.80;;;0.80;;
6185;SDS011;3126;52.738;8.316;2024-02-23T11:01:11;1.88;;;1.13;;
6185;SDS011;3126;52.738;8.316;2024-02-23T11:06:13;1.67;;;1.20;;
6185;SDS011;3126;52.738;8.316;2024-02-23T11:11:16;1.52;;;1.20;;
6185;SDS011;3126;52.738;8.316;2024-02-23T11:16:21;1.70;;;1.60;;
6185;SDS011;3126;52.738;8.316;2024-02-23T11:21:25;1.48;;;1.38;;
6185;SDS011;3126;52.738;8.316;2024-02-23T11:26:36;1.95;;;1.00;;
6185;SDS011;3126;52.738;8.316;2024-02-23T11:31:37;3.33;;;1.17;;
6185;SDS011;3126;52.738;8.316;2024-02-23T11:36:45;3.80;;;1.05;;
6185;SDS011;3126;52.738;8.316;2024-02-23T11:41:52;3.10;;;1.17;;
6185;SDS011;3126;52.738;8.316;2024-02-23T11:46:53;3.78;;;1.20;;
6185;SDS011;3126;52.738;8.316;2024-02-23T11:51:54;1.85;;;0.90;;
6185;SDS011;3126;52.738;8.316;2024-02-23T11:56:55;3.05;;;1.33;;
6185;SDS011;3126;52.738;8.316;2024-02-23T12:01:56;3.88;;;1.80;;
6185;SDS011;3126;52.738;8.316;2024-02-23T12:06:57;1.30;;;1.20;;
6185;SDS011;3126;52.738;8.316;2024-02-23T12:11:58;2.13;;;1.20;;
6185;SDS011;3126;52.738;8.316;2024-02-23T12:16:59;2.60;;;1.48;;
6185;SDS011;3126;52.738;8.316;2024-02-23T12:22:04;1.35;;;1.25;;
6185;SDS011;3126;52.738;8.316;2024-02-23T12:27:05;3.00;;;1.58;;
6185;SDS011;3126;52.738;8.316;2024-02-23T12:32:06;3.63;;;1.77;;
6185;SDS011;3126;52.738;8.316;2024-02-23T12:37:07;5.03;;;1.80;;
6185;SDS011;3126;52.738;8.316;2024-02-23T12:42:08;2.53;;;1.52;;
6185;SDS011;3126;52.738;8.316;2024-02-23T12:47:09;3.70;;;1.80;;
6185;SDS011;3126;52.738;8.316;2024-02-23T12:52:10;3.13;;;1.15;;
6185;SDS011;3126;52.738;8.316;2024-02-23T12:57:11;2.67;;;1.20;;
6185;SDS011;3126;52.738;8.316;2024-02-23T13:02:12;3.42;;;1.80;;
6185;SDS011;3126;52.738;8.316;2024-02-23T13:07:13;1.58;;;1.13;;
6185;SDS011;3126;52.738;8.316;2024-02-23T13:12:14;3.67;;;1.23;;
6185;SDS011;3126;52.738;8.316;2024-02-23T13:17:15;1.55;;;0.70;;
6185;SDS011;3126;52.738;8.316;2024-02-23T13:22:17;1.30;;;0.70;;
6185;SDS011;3126;52.738;8.316;2024-02-23T13:27:18;4.60;;;1.33;;
6185;SDS011;3126;52.738;8.316;2024-02-23T13:32:19;4.22;;;1.60;;
6185;SDS011;3126;52.738;8.316;2024-02-23T13:37:20;4.07;;;1.13;;
6185;SDS011;3126;52.738;8.316;2024-02-23T13:42:21;4.65;;;1.98;;
6185;SDS011;3126;52.738;8.316;2024-02-23T13:47:22;1.73;;;0.93;;
6185;SDS011;3126;52.738;8.316;2024-02-23T13:52:23;3.05;;;1.13;;
6185;SDS011;3126;52.738;8.316;2024-02-23T13:57:25;1.50;;;0.70;;
6185;SDS011;3126;52.738;8.316;2024-02-23T14:02:26;5.00;;;1.15;;
6185;SDS011;3126;52.738;8.316;2024-02-23T14:07:29;3.15;;;1.52;;
6185;SDS011;3126;52.738;8.316;2024-02-23T14:12:30;3.63;;;1.50;;
6185;SDS011;3126;52.738;8.316;2024-02-23T14:17:31;1.80;;;1.00;;
6185;SDS011;3126;52.738;8.316;2024-02-23T14:22:32;3.53;;;1.30;;
6185;SDS011;3126;52.738;8.316;2024-02-23T14:27:33;2.15;;;1.30;;
6185;SDS011;3126;52.738;8.316;2024-02-23T14:32:34;4.05;;;1.35;;
6185;SDS011;3126;52.738;8.316;2024-02-23T14:37:35;2.88;;;1.23;;
6185;SDS011;3126;52.738;8.316;2024-02-23T14:42:36;4.63;;;2.00;;
6185;SDS011;3126;52.738;8.316;2024-02-23T14:47:39;2.63;;;1.55;;
6185;SDS011;3126;52.738;8.316;2024-02-23T14:52:40;2.08;;;1.90;;
6185;SDS011;3126;52.738;8.316;2024-02-23T14:57:41;3.03;;;1.40;;
6185;SDS011;3126;52.738;8.316;2024-02-23T15:02:42;2.55;;;1.02;;
6185;SDS011;3126;52.738;8.316;2024-02-23T15:07:43;3.22;;;1.63;;
6185;SDS011;3126;52.738;8.316;2024-02-23T15:12:44;4.38;;;1.23;;
6185;SDS011;3126;52.738;8.316;2024-02-23T15:17:45;2.05;;;0.77;;
6185;SDS011;3126;52.738;8.316;2024-02-23T15:22:48;1.05;;;0.95;;
6185;SDS011;3126;52.738;8.316;2024-02-23T15:27:49;3.25;;;1.17;;
6185;SDS011;3126;52.738;8.316;2024-02-23T15:32:52;1.77;;;1.00;;
6185;SDS011;3126;52.738;8.316;2024-02-23T15:37:53;2.72;;;1.60;;
6185;SDS011;3126;52.738;8.316;2024-02-23T15:42:54;2.42;;;1.25;;
6185;SDS011;3126;52.738;8.316;2024-02-23T15:47:55;2.88;;;1.73;;
6185;SDS011;3126;52.738;8.316;2024-02-23T15:52:56;3.65;;;1.67;;
6185;SDS011;3126;52.738;8.316;2024-02-23T15:57:57;1.73;;;1.13;;
6185;SDS011;3126;52.738;8.316;2024-02-23T16:03:00;3.97;;;1.35;;
6185;SDS011;3126;52.738;8.316;2024-02-23T16:08:01;3.28;;;1.55;;
6185;SDS011;3126;52.738;8.316;2024-02-23T16:13:03;1.70;;;1.50;;
6185;SDS011;3126;52.738;8.316;2024-02-23T16:18:04;5.70;;;1.45;;
6185;SDS011;3126;52.738;8.316;2024-02-23T16:23:07;3.53;;;1.52;;
6185;SDS011;3126;52.738;8.316;2024-02-23T16:28:08;3.60;;;1.70;;
6185;SDS011;3126;52.738;8.316;2024-02-23T16:33:09;2.40;;;1.80;;
6185;SDS011;3126;52.738;8.316;2024-02-23T16:38:10;3.33;;;1.52;;
6185;SDS011;3126;52.738;8.316;2024-02-23T16:43:11;1.52;;;1.10;;
6185;SDS011;3126;52.738;8.316;2024-02-23T16:48:12;3.47;;;1.35;;
6185;SDS011;3126;52.738;8.316;2024-02-23T16:53:13;5.18;;;2.15;;
6185;SDS011;3126;52.738;8.316;2024-02-23T16:58:14;3.75;;;1.42;;
6185;SDS011;3126;52.738;8.316;2024-02-23T17:03:22;2.45;;;1.63;;
6185;SDS011;3126;52.738;8.316;2024-02-23T17:08:23;1.92;;;1.48;;
6185;SDS011;3126;52.738;8.316;2024-02-23T17:13:24;3.85;;;2.10;;
6185;SDS011;3126;52.738;8.316;2024-02-23T17:18:25;2.65;;;1.60;;
6185;SDS011;3126;52.738;8.316;2024-02-23T17:23:27;5.28;;;2.97;;
6185;SDS011;3126;52.738;8.316;2024-02-23T17:28:28;3.10;;;2.13;;
6185;SDS011;3126;52.738;8.316;2024-02-23T17:33:30;4.10;;;2.33;;
6185;SDS011;3126;52.738;8.316;2024-02-23T17:38:31;3.58;;;1.70;;
6185;SDS011;3126;52.738;8.316;2024-02-23T17:43:32;3.17;;;2.53;;
6185;SDS011;3126;52.738;8.316;2024-02-23T17:48:33;3.97;;;1.80;;
6185;SDS011;3126;52.738;8.316;2024-02-23T17:53:35;2.55;;;1.90;;
6185;SDS011;3126;52.738;8.316;2024-02-23T17:58:36;2.72;;;2.03;;
6185;SDS011;3126;52.738;8.316;2024-02-23T18:03:37;4.15;;;2.80;;
6185;SDS011;3126;52.738;8.316;2024-02-23T18:08:39;5.00;;;3.17;;
6185;SDS011;3126;52.738;8.316;2024-02-23T18:13:40;6.28;;;3.00;;
6185;SDS011;3126;52.738;8.316;2024-02-23T18:18:41;5.95;;;4.03;;
6185;SDS011;3126;52.738;8.316;2024-02-23T18:23:45;4.07;;;3.33;;
6185;SDS011;3126;52.738;8.316;2024-02-23T18:28:46;5.75;;;4.18;;
6185;SDS011;3126;52.738;8.316;2024-02-23T18:33:47;5.05;;;3.47;;
6185;SDS011;3126;52.738;8.316;2024-02-23T18:38:48;3.83;;;2.25;;
6185;SDS011;3126;52.738;8.316;2024-02-23T18:43:49;4.20;;;2.60;;
6185;SDS011;3126;52.738;8.316;2024-02-23T18:48:50;3.40;;;2.83;;
6185;SDS011;3126;52.738;8.316;2024-02-23T18:53:53;2.90;;;1.42;;
6185;SDS011;3126;52.738;8.316;2024-02-23T18:58:54;3.30;;;1.35;;
6185;SDS011;3126;52.738;8.316;2024-02-23T19:03:56;5.03;;;2.78;;
6185;SDS011;3126;52.738;8.316;2024-02-23T19:08:58;2.15;;;1.10;;
6185;SDS011;3126;52.738;8.316;2024-02-23T19:13:59;3.30;;;1.10;;
6185;SDS011;3126;52.738;8.316;2024-02-23T19:19:00;1.38;;;1.15;;
6185;SDS011;3126;52.738;8.316;2024-02-23T19:24:05;1.55;;;0.80;;
6185;SDS011;3126;52.738;8.316;2024-02-23T19:29:06;7.10;;;2.80;;
6185;SDS011;3126;52.738;8.316;2024-02-23T19:34:09;2.55;;;2.10;;
6185;SDS011;3126;52.738;8.316;2024-02-23T19:39:10;4.03;;;1.77;;
6185;SDS011;3126;52.738;8.316;2024-02-23T19:44:11;2.55;;;1.17;;
6185;SDS011;3126;52.738;8.316;2024-02-23T19:49:12;3.90;;;2.67;;
6185;SDS011;3126;52.738;8.316;2024-02-23T19:54:13;5.20;;;2.40;;
6185;SDS011;3126;52.738;8.316;2024-02-23T19:59:14;3.95;;;2.40;;
6185;SDS011;3126;52.738;8.316;2024-02-23T20:04:15;2.67;;;1.58;;
6185;SDS011;3126;52.738;8.316;2024-02-23T20:09:17;2.28;;;1.70;;
6185;SDS011;3126;52.738;8.316;2024-02-23T20:14:18;5.63;;;2.03;;
6185;SDS011;3126;52.738;8.316;2024-02-23T20:19:21;2.30;;;1.60;;
6185;SDS011;3126;52.738;8.316;2024-02-23T20:24:22;2.63;;;1.45;;
6185;SDS011;3126;52.738;8.316;2024-02-23T20:29:25;4.32;;;2.30;;
6185;SDS011;3126;52.738;8.316;2024-02-23T20:34:26;4.10;;;3.10;;
6185;SDS011;3126;52.738;8.316;2024-02-23T20:39:27;3.95;;;2.42;;
6185;SDS011;3126;52.738;8.316;2024-02-23T20:44:30;5.75;;;3.08;;
6185;SDS011;3126;52.738;8.316;2024-02-23T20:49:31;3.72;;;2.80;;
6185;SDS011;3126;52.738;8.316;2024-02-23T20:54:32;2.58;;;2.25;;
6185;SDS011;3126;52.738;8.316;2024-02-23T20:59:33;1.90;;;1.67;;
6185;SDS011;3126;52.738;8.316;2024-02-23T21:04:34;4.05;;;3.15;;
6185;SDS011;3126;52.738;8.316;2024-02-23T21:09:35;2.22;;;2.00;;
6185;SDS011;3126;52.738;8.316;2024-02-23T21:14:36;4.55;;;2.78;;
6185;SDS011;3126;52.738;8.316;2024-02-23T21:19:38;2.97;;;2.40;;
6185;SDS011;3126;52.738;8.316;2024-02-23T21:24:39;2.35;;;1.42;;
6185;SDS011;3126;52.738;8.316;2024-02-23T21:29:44;2.47;;;1.40;;
6185;SDS011;3126;52.738;8.316;2024-02-23T21:34:47;6.55;;;3.10;;
6185;SDS011;3126;52.738;8.316;2024-02-23T21:39:48;5.50;;;3.75;;
6185;SDS011;3126;52.738;8.316;2024-02-23T21:44:52;2.95;;;2.47;;
6185;SDS011;3126;52.738;8.316;2024-02-23T21:49:53;3.72;;;1.60;;
6185;SDS011;3126;52.738;8.316;2024-02-23T21:54:54;3.25;;;1.70;;
6185;SDS011;3126;52.738;8.316;2024-02-23T21:59:54;1.95;;;1.25;;
6185;SDS011;3126;52.738;8.316;2024-02-23T22:04:57;1.58;;;1.10;;
6185;SDS011;3126;52.738;8.316;2024-02-23T22:09:58;3.45;;;1.67;;
6185;SDS011;3126;52.738;8.316;2024-02-23T22:14:59;2.72;;;1.63;;
6185;SDS011;3126;52.738;8.316;2024-02-23T22:20:03;3.65;;;2.10;;
6185;SDS011;3126;52.738;8.316;2024-02-23T22:25:04;4.15;;;2.10;;
6185;SDS011;3126;52.738;8.316;2024-02-23T22:30:05;2.45;;;2.15;;
6185;SDS011;3126;52.738;8.316;2024-02-23T22:35:08;2.60;;;1.88;;
6185;SDS011;3126;52.738;8.316;2024-02-23T22:40:09;6.85;;;3.88;;
6185;SDS011;3126;52.738;8.316;2024-02-23T22:45:13;4.10;;;2.00;;
6185;SDS011;3126;52.738;8.316;2024-02-23T22:50:14;3.67;;;1.92;;
6185;SDS011;3126;52.738;8.316;2024-02-23T22:55:16;2.63;;;1.63;;
6185;SDS011;3126;52.738;8.316;2024-02-23T23:00:17;5.65;;;3.10;;
6185;SDS011;3126;52.738;8.316;2024-02-23T23:05:18;6.43;;;2.83;;
6185;SDS011;3126;52.738;8.316;2024-02-23T23:10:20;3.42;;;2.13;;
6185;SDS011;3126;52.738;8.316;2024-02-23T23:15:21;2.58;;;2.13;;
6185;SDS011;3126;52.738;8.316;2024-02-23T23:20:22;4.97;;;2.25;;
6185;SDS011;3126;52.738;8.316;2024-02-23T23:25:24;3.97;;;2.72;;
6185;SDS011;3126;52.738;8.316;2024-02-23T23:30:25;3.50;;;2.13;;
6185;SDS011;3126;52.738;8.316;2024-02-23T23:35:26;3.85;;;1.67;;
6185;SDS011;3126;52.738;8.316;2024-02-23T23:40:27;2.08;;;1.50;;
6185;SDS011;3126;52.738;8.316;2024-02-23T23:45:28;5.05;;;1.98;;
6185;SDS011;3126;52.738;8.316;2024-02-23T23:50:29;3.00;;;1.60;;
6185;SDS011;3126;52.738;8.316;2024-02-23T23:55:30;3.63;;;1.83;;
